createdAt,value
2022-08-12T00:00:36.532Z,14.52
2022-08-12T00:03:24.568Z,16.13
2022-08-12T00:06:11.488Z,13.90
2022-08-12T00:08:58.268Z,12.82
2022-08-12T00:11:45.612Z,13.70
2022-08-12T00:14:32.275Z,14.73
2022-08-12T00:17:19.665Z,16.08
2022-08-12T00:20:07.509Z,14.20
2022-08-12T00:22:59.890Z,12.75
2022-08-12T00:26:21.496Z,13.48
2022-08-12T00:29:04.767Z,13.32
2022-08-12T00:31:51.527Z,16.52
2022-08-12T00:34:37.849Z,12.55
2022-08-12T00:37:26.019Z,15.50
2022-08-12T00:40:15.839Z,14.27
2022-08-12T00:42:46.209Z,14.23
2022-08-12T00:45:15.211Z,13.43
2022-08-12T00:47:44.671Z,17.42
2022-08-12T00:50:19.651Z,12.40
2022-08-12T00:52:52.116Z,18.95
2022-08-12T00:55:21.897Z,12.30
2022-08-12T00:57:52.180Z,13.80
2022-08-12T01:00:23.156Z,18.38
2022-08-12T01:02:55.708Z,15.80
2022-08-12T01:05:43.612Z,13.17
2022-08-12T01:08:46.090Z,12.48
2022-08-12T01:11:30.082Z,14.25
2022-08-12T01:14:00.680Z,12.43
2022-08-12T01:16:29.875Z,14.80
2022-08-12T01:18:59.884Z,15.48
2022-08-12T01:21:57.965Z,14.55
2022-08-12T01:24:52.478Z,11.07
2022-08-12T01:27:23.387Z,11.75
2022-08-12T01:29:54.898Z,15.98
2022-08-12T01:32:24.764Z,15.40
2022-08-12T01:34:59.351Z,13.32
2022-08-12T01:37:31.561Z,13.85
2022-08-12T01:40:35.056Z,12.38
2022-08-12T01:42:53.187Z,14.52
2022-08-12T01:45:25.034Z,11.23
2022-08-12T01:48:06.133Z,13.02
2022-08-12T01:50:43.138Z,12.10
2022-08-12T01:53:16.006Z,10.80
2022-08-12T01:55:48.194Z,13.45
2022-08-12T01:58:27.276Z,13.93
2022-08-12T02:01:01.407Z,11.85
2022-08-12T02:04:05.176Z,14.15
2022-08-12T02:06:57.853Z,12.88
2022-08-12T02:09:58.420Z,14.45
2022-08-12T02:12:43.751Z,12.98
2022-08-12T02:15:27.078Z,13.07
2022-08-12T02:18:09.894Z,14.27
2022-08-12T02:20:51.656Z,11.45
2022-08-12T02:23:27.239Z,17.50
2022-08-12T02:25:59.874Z,14.10
2022-08-12T02:28:31.944Z,12.20
2022-08-12T02:31:05.664Z,12.43
2022-08-12T02:33:35.324Z,11.70
2022-08-12T02:36:05.211Z,13.93
2022-08-12T02:38:34.451Z,13.25
2022-08-12T02:41:07.070Z,12.95
2022-08-12T02:43:41.509Z,14.88
2022-08-12T02:46:14.897Z,12.93
2022-08-12T02:48:51.191Z,11.48
2022-08-12T02:51:24.847Z,14.48
2022-08-12T02:54:04.640Z,13.05
2022-08-12T02:56:40.689Z,13.32
2022-08-12T02:59:16.903Z,11.90
2022-08-12T03:01:49.853Z,11.95
2022-08-12T03:04:27.730Z,13.82
2022-08-12T03:07:05.691Z,11.95
2022-08-12T03:09:49.912Z,12.38
2022-08-12T03:12:33.999Z,14.32
2022-08-12T03:15:10.021Z,11.63
2022-08-12T03:17:46.251Z,16.85
2022-08-12T03:20:41.000Z,11.02
2022-08-12T03:23:19.399Z,15.10
2022-08-12T03:26:01.991Z,13.55
2022-08-12T03:28:50.040Z,13.32
2022-08-12T03:31:22.336Z,14.15
2022-08-12T03:34:02.144Z,14.27
2022-08-12T03:36:35.387Z,15.70
2022-08-12T03:39:22.987Z,14.98
2022-08-12T03:42:22.508Z,11.43
2022-08-12T03:45:15.949Z,12.20
2022-08-12T03:48:18.576Z,12.38
2022-08-12T03:51:06.516Z,11.85
2022-08-12T03:53:53.458Z,13.50
2022-08-12T03:56:40.107Z,11.95
2022-08-12T03:59:26.939Z,13.85
2022-08-12T04:01:58.577Z,12.32
2022-08-12T04:04:34.112Z,11.48
2022-08-12T04:07:07.962Z,14.07
2022-08-12T04:09:39.187Z,17.52
2022-08-12T04:12:26.373Z,16.08
2022-08-12T04:14:57.100Z,13.30
2022-08-12T04:17:28.267Z,12.65
2022-08-12T04:20:00.132Z,17.33
2022-08-12T04:22:30.791Z,13.52
2022-08-12T04:25:02.088Z,29.15
2022-08-12T04:27:32.779Z,14.15
2022-08-12T04:30:21.000Z,15.30
2022-08-12T04:32:53.881Z,18.23
2022-08-12T04:35:24.191Z,32.38
2022-08-12T04:38:00.150Z,36.83
2022-08-12T04:40:31.513Z,15.55
2022-08-12T04:43:02.384Z,18.05
2022-08-12T04:45:34.941Z,14.25
2022-08-12T04:48:06.096Z,14.15
2022-08-12T04:50:37.334Z,14.52
2022-08-12T04:53:09.813Z,11.43
2022-08-12T04:55:39.521Z,11.88
2022-08-12T04:58:09.119Z,13.90
2022-08-12T05:00:39.008Z,13.10
2022-08-12T05:03:10.969Z,13.65
2022-08-12T05:05:43.990Z,15.90
2022-08-12T05:08:14.090Z,10.95
2022-08-12T05:10:44.784Z,13.77
2022-08-12T05:13:29.561Z,11.48
2022-08-12T05:16:04.408Z,14.27
2022-08-12T05:18:39.457Z,11.93
2022-08-12T05:21:10.838Z,15.85
2022-08-12T05:23:43.074Z,12.25
2022-08-12T05:26:12.179Z,14.83
2022-08-12T05:28:41.756Z,12.77
2022-08-12T05:31:11.323Z,13.75
2022-08-12T05:33:41.094Z,12.50
2022-08-12T05:36:14.131Z,11.85
2022-08-12T05:38:59.092Z,15.32
2022-08-12T05:41:29.956Z,13.55
2022-08-12T05:44:01.170Z,12.48
2022-08-12T05:46:34.184Z,13.50
2022-08-12T05:51:41.398Z,14.73
2022-08-12T05:54:11.613Z,12.15
2022-08-12T05:56:41.821Z,12.07
2022-08-12T05:59:12.411Z,12.57
2022-08-12T06:02:12.593Z,13.15
2022-08-12T06:04:33.369Z,14.57
2022-08-12T06:07:48.732Z,15.63
2022-08-12T06:09:57.874Z,13.25
2022-08-12T06:12:26.734Z,13.40
2022-08-12T06:14:55.830Z,13.57
2022-08-12T06:17:24.915Z,11.50
2022-08-12T06:20:27.071Z,13.57
2022-08-12T06:22:45.374Z,12.25
2022-08-12T06:25:22.157Z,11.93
2022-08-12T06:28:07.234Z,13.18
2022-08-12T06:30:39.385Z,13.45
2022-08-12T06:33:49.760Z,12.68
2022-08-12T06:35:58.916Z,13.90
2022-08-12T06:38:31.455Z,14.50
2022-08-12T06:41:19.841Z,16.83
2022-08-12T06:44:04.967Z,12.10
2022-08-12T06:46:38.967Z,13.68
2022-08-12T06:49:08.839Z,13.30
2022-08-12T06:51:37.723Z,15.73
2022-08-12T06:54:10.621Z,14.77
2022-08-12T06:57:03.188Z,16.98
2022-08-12T06:59:28.722Z,13.57
2022-08-12T07:01:57.667Z,14.75
2022-08-12T07:04:36.759Z,16.95
2022-08-12T07:07:07.417Z,13.30
2022-08-12T07:10:04.805Z,18.30
2022-08-12T07:12:32.485Z,15.07
2022-08-12T07:15:02.741Z,12.65
2022-08-12T07:17:38.011Z,12.55
2022-08-12T07:20:29.661Z,13.25
2022-08-12T07:23:01.751Z,14.15
2022-08-12T07:25:41.058Z,13.10
2022-08-12T07:28:16.628Z,14.32
2022-08-12T07:30:48.719Z,12.98
2022-08-12T07:33:19.391Z,14.02
2022-08-12T07:35:48.838Z,13.48
2022-08-12T07:38:29.875Z,15.07
2022-08-12T07:41:06.210Z,14.10
2022-08-12T07:43:38.951Z,13.07
2022-08-12T07:46:10.509Z,14.23
2022-08-12T07:48:42.219Z,12.90
2022-08-12T07:51:12.809Z,13.82
2022-08-12T07:54:00.828Z,13.02
2022-08-12T07:56:33.491Z,12.30
2022-08-12T07:59:03.207Z,12.55
2022-08-12T08:01:33.220Z,14.27
2022-08-12T08:04:24.044Z,14.20
2022-08-12T08:06:55.270Z,15.27
2022-08-12T08:09:25.004Z,12.43
2022-08-12T08:12:19.090Z,14.27
2022-08-12T08:14:49.749Z,14.68
2022-08-12T08:17:19.228Z,12.50
2022-08-12T08:20:03.529Z,13.23
2022-08-12T08:22:41.550Z,12.30
2022-08-12T08:25:35.096Z,18.75
2022-08-12T08:28:04.544Z,15.55
2022-08-12T08:30:34.426Z,12.10
2022-08-12T08:33:03.167Z,14.85
2022-08-12T08:35:49.317Z,13.93
2022-08-12T08:38:32.199Z,13.63
2022-08-12T08:42:16.164Z,13.98
2022-08-12T08:44:13.775Z,18.05
2022-08-12T08:46:43.851Z,11.32
2022-08-12T08:49:13.397Z,12.63
2022-08-12T08:51:42.721Z,14.98
2022-08-12T08:54:12.744Z,15.05
2022-08-12T08:56:46.504Z,14.57
2022-08-12T08:59:19.410Z,16.92
2022-08-12T09:01:49.506Z,13.95
2022-08-12T09:05:12.130Z,14.05
2022-08-12T09:07:17.837Z,14.48
2022-08-12T09:10:02.762Z,11.88
2022-08-12T09:15:42.418Z,13.27
2022-08-12T09:21:17.949Z,13.55
2022-08-12T09:24:00.492Z,13.60
2022-08-12T09:26:45.871Z,14.73
2022-08-12T09:29:16.065Z,14.70
2022-08-12T09:32:03.283Z,17.77
2022-08-12T09:34:43.174Z,14.38
2022-08-12T09:37:19.504Z,13.07
2022-08-12T09:40:05.802Z,13.60
2022-08-12T09:43:16.573Z,12.35
2022-08-12T09:46:06.455Z,13.02
2022-08-12T09:48:44.490Z,13.35
2022-08-12T09:51:17.211Z,13.75
2022-08-12T09:54:08.367Z,16.88
2022-08-12T09:57:03.181Z,12.88
2022-08-12T10:00:13.961Z,13.82
2022-08-12T10:02:44.707Z,13.77
2022-08-12T10:05:13.873Z,14.55
2022-08-12T10:07:46.897Z,13.35
2022-08-12T10:10:22.929Z,13.13
2022-08-12T10:13:34.392Z,12.10
2022-08-12T10:16:06.323Z,13.27
2022-08-12T10:18:51.753Z,15.18
2022-08-12T10:21:36.016Z,19.00
2022-08-12T10:24:08.456Z,14.68
2022-08-12T10:26:57.271Z,16.60
2022-08-12T10:30:03.067Z,16.08
2022-08-12T10:32:44.474Z,15.90
2022-08-12T10:35:17.154Z,13.17
2022-08-12T10:38:36.566Z,17.50
2022-08-12T10:40:58.777Z,16.08
2022-08-12T10:43:54.486Z,17.38
2022-08-12T10:46:31.025Z,13.05
2022-08-12T10:49:07.084Z,14.27
2022-08-12T10:52:33.434Z,14.57
2022-08-12T10:54:43.795Z,17.08
2022-08-12T10:58:12.974Z,14.70
2022-08-12T11:00:30.265Z,17.25
2022-08-12T11:04:31.295Z,25.25
2022-08-12T11:07:03.347Z,15.90
2022-08-12T11:08:42.763Z,14.77
2022-08-12T11:12:36.097Z,14.07
2022-08-12T11:14:49.670Z,15.18
2022-08-12T11:17:34.273Z,16.40
2022-08-12T11:19:48.817Z,18.17
2022-08-12T11:22:18.133Z,16.58
2022-08-12T11:24:55.561Z,13.63
2022-08-12T11:27:26.056Z,13.15
2022-08-12T11:30:01.978Z,15.25
2022-08-12T11:32:38.606Z,14.00
2022-08-12T11:35:11.505Z,15.53
2022-08-12T11:37:41.444Z,14.00
2022-08-12T11:40:28.439Z,17.35
2022-08-12T11:43:03.596Z,15.20
2022-08-12T11:45:52.947Z,14.45
2022-08-12T11:48:26.986Z,14.65
2022-08-12T11:50:56.981Z,20.33
2022-08-12T11:53:57.152Z,18.38
2022-08-12T11:56:15.050Z,14.00
2022-08-12T12:02:03.067Z,18.55
2022-08-12T12:04:28.918Z,14.38
2022-08-12T12:07:06.617Z,17.98
2022-08-12T12:09:53.104Z,22.10
2022-08-12T12:12:25.232Z,18.65
2022-08-12T12:14:55.692Z,19.75
2022-08-12T12:17:25.184Z,19.65
2022-08-12T12:19:55.160Z,16.67
2022-08-12T12:22:27.118Z,19.05
2022-08-12T12:25:13.329Z,18.30
2022-08-12T12:30:40.397Z,17.50
2022-08-12T12:33:23.971Z,17.80
2022-08-12T12:36:16.672Z,15.02
2022-08-12T12:38:42.064Z,15.13
2022-08-12T12:41:16.321Z,15.00
2022-08-12T12:43:56.516Z,18.05
2022-08-12T12:46:34.511Z,15.18
2022-08-12T12:49:11.032Z,15.48
2022-08-12T12:51:49.007Z,17.23
2022-08-12T12:54:29.262Z,14.88
2022-08-12T12:56:58.701Z,15.88
2022-08-12T12:59:55.543Z,16.13
2022-08-12T13:02:31.519Z,29.83
2022-08-12T13:05:00.801Z,22.05
2022-08-12T13:07:49.351Z,17.63
2022-08-12T13:10:23.906Z,16.55
2022-08-12T13:12:53.995Z,17.33
2022-08-12T13:15:45.024Z,12.45
2022-08-12T13:18:15.614Z,13.23
2022-08-12T13:20:49.468Z,15.55
2022-08-12T13:23:36.370Z,14.23
2022-08-12T13:26:14.531Z,14.50
2022-08-12T13:28:53.055Z,14.75
2022-08-12T13:31:27.275Z,14.27
2022-08-12T13:34:33.479Z,14.18
2022-08-12T13:36:47.450Z,13.88
2022-08-12T13:39:16.494Z,13.85
2022-08-12T13:41:45.507Z,18.65
2022-08-12T13:44:16.974Z,17.33
2022-08-12T13:46:58.528Z,16.42
2022-08-12T13:49:54.508Z,16.03
2022-08-12T13:52:20.488Z,20.65
2022-08-12T13:54:56.242Z,17.80
2022-08-12T13:57:26.741Z,16.50
2022-08-12T14:00:00.447Z,17.35
2022-08-12T14:02:29.770Z,16.40
2022-08-12T14:05:00.108Z,13.55
2022-08-12T14:07:48.782Z,18.65
2022-08-12T14:10:39.014Z,16.77
2022-08-12T14:14:04.207Z,15.30
2022-08-12T14:16:14.294Z,16.52
2022-08-12T14:18:49.148Z,14.43
2022-08-12T14:21:22.473Z,19.25
2022-08-12T14:24:05.798Z,17.70
2022-08-12T14:26:41.766Z,15.95
2022-08-12T14:29:11.914Z,15.55
2022-08-12T14:32:03.404Z,25.75
2022-08-12T14:34:33.817Z,20.65
2022-08-12T14:37:07.258Z,17.88
2022-08-12T14:39:47.026Z,13.63
2022-08-12T14:42:20.258Z,17.48
2022-08-12T14:44:59.016Z,15.85
2022-08-12T14:47:50.069Z,15.45
2022-08-12T14:50:41.014Z,15.73
2022-08-12T14:59:20.649Z,21.25
2022-08-12T15:01:54.520Z,17.75
2022-08-12T15:04:29.117Z,17.25
2022-08-12T15:07:00.446Z,15.82
2022-08-12T15:09:31.670Z,18.50
2022-08-12T15:12:03.807Z,20.00
2022-08-12T15:14:35.404Z,17.90
2022-08-12T15:17:08.518Z,16.98
2022-08-12T15:20:24.667Z,21.15
2022-08-12T15:22:38.296Z,19.80
2022-08-12T15:25:17.842Z,20.40
2022-08-12T15:28:03.876Z,18.23
2022-08-12T15:30:37.657Z,21.77
2022-08-12T15:33:12.947Z,16.95
2022-08-12T15:35:52.851Z,18.10
2022-08-12T15:38:28.316Z,18.05
2022-08-12T15:41:00.268Z,19.73
2022-08-12T15:43:51.691Z,25.15
2022-08-12T15:46:25.758Z,24.08
2022-08-12T15:48:55.783Z,17.98
2022-08-12T15:51:59.659Z,17.38
2022-08-12T15:54:34.089Z,21.13
2022-08-12T15:57:10.852Z,21.30
2022-08-12T16:00:00.046Z,18.38
2022-08-12T16:02:50.435Z,16.83
2022-08-12T16:06:19.506Z,17.13
2022-08-12T16:08:19.758Z,20.35
2022-08-12T16:10:54.118Z,16.60
2022-08-12T16:13:32.761Z,19.25
2022-08-12T16:16:22.450Z,18.45
2022-08-12T16:19:01.946Z,19.27
2022-08-12T16:21:50.461Z,19.50
2022-08-12T16:24:22.655Z,23.95
2022-08-12T16:26:55.450Z,17.02
2022-08-12T16:29:53.530Z,20.92
2022-08-12T16:32:31.514Z,18.75
2022-08-12T16:35:02.181Z,20.20
2022-08-12T16:38:24.240Z,25.13
2022-08-12T16:40:24.393Z,20.20
2022-08-12T16:43:02.128Z,18.83
2022-08-12T16:46:05.287Z,19.77
2022-08-12T16:48:34.814Z,20.40
2022-08-12T16:51:09.589Z,22.10
2022-08-12T16:53:44.096Z,18.73
2022-08-12T16:56:17.331Z,31.27
2022-08-12T16:58:48.315Z,22.70
2022-08-12T17:01:19.735Z,21.77
2022-08-12T17:04:04.779Z,25.42
2022-08-12T17:06:46.181Z,27.10
2022-08-12T17:09:19.013Z,24.08
2022-08-12T17:11:50.319Z,25.33
2022-08-12T17:14:24.865Z,21.10
2022-08-12T17:16:57.020Z,19.02
2022-08-12T17:20:30.447Z,19.65
2022-08-12T17:22:21.722Z,19.10
2022-08-12T17:24:55.438Z,19.13
2022-08-12T17:27:32.016Z,20.50
2022-08-12T17:30:08.749Z,20.08
2022-08-12T17:32:53.126Z,24.23
2022-08-12T17:35:36.547Z,19.45
2022-08-12T17:38:11.844Z,23.55
2022-08-12T17:40:44.359Z,20.23
2022-08-12T17:43:57.083Z,18.90
2022-08-12T17:46:12.771Z,23.63
2022-08-12T17:48:55.631Z,20.95
2022-08-12T17:51:31.473Z,20.13
2022-08-12T17:54:11.156Z,18.60
2022-08-12T17:56:52.879Z,20.20
2022-08-12T17:59:47.735Z,24.83
2022-08-12T18:02:25.512Z,21.55
2022-08-12T18:05:09.367Z,20.27
2022-08-12T18:07:44.236Z,20.45
2022-08-12T18:10:43.049Z,24.73
2022-08-12T18:13:14.200Z,21.08
2022-08-12T18:16:12.767Z,21.27
2022-08-12T18:18:45.764Z,24.90
2022-08-12T18:21:20.313Z,20.33
2022-08-12T18:23:53.987Z,22.70
2022-08-12T18:26:24.932Z,20.33
2022-08-12T18:28:56.913Z,25.08
2022-08-12T18:31:43.849Z,21.65
2022-08-12T18:34:18.565Z,22.92
2022-08-12T18:36:55.400Z,22.98
2022-08-12T18:39:28.393Z,25.45
2022-08-12T18:42:00.156Z,21.17
2022-08-12T18:44:59.942Z,23.23
2022-08-12T18:47:49.831Z,31.27
2022-08-12T18:50:24.775Z,23.67
2022-08-12T18:52:58.073Z,22.42
2022-08-12T18:55:37.433Z,22.85
2022-08-12T18:58:10.432Z,23.60
2022-08-12T19:00:45.306Z,22.75
2022-08-12T19:03:39.162Z,22.33
2022-08-12T19:06:15.789Z,19.25
2022-08-12T19:08:47.569Z,20.13
2022-08-12T19:11:37.952Z,20.40
2022-08-12T19:14:28.522Z,19.48
2022-08-12T19:17:01.521Z,21.60
2022-08-12T19:22:30.778Z,24.65
2022-08-12T19:26:00.920Z,19.50
2022-08-12T19:28:36.564Z,20.52
2022-08-12T19:31:56.252Z,22.40
2022-08-12T19:36:08.308Z,23.58
2022-08-12T19:38:03.499Z,21.73
2022-08-12T19:40:57.524Z,24.65
2022-08-12T19:44:00.272Z,19.63
2022-08-12T19:46:52.950Z,17.33
2022-08-12T19:49:53.403Z,20.13
2022-08-12T19:52:43.111Z,17.33
2022-08-12T19:55:38.757Z,17.75
2022-08-12T19:58:28.439Z,18.10
2022-08-12T20:01:17.402Z,19.50
2022-08-12T20:04:04.940Z,19.00
2022-08-12T20:06:53.485Z,23.17
2022-08-12T20:09:42.896Z,18.25
2022-08-12T20:12:34.695Z,18.70
2022-08-12T20:15:26.279Z,20.33
2022-08-12T20:18:44.115Z,18.27
2022-08-12T20:21:41.098Z,17.27
2022-08-12T20:24:32.298Z,19.00
2022-08-12T20:27:53.698Z,18.48
2022-08-12T20:30:52.889Z,21.85
2022-08-12T20:33:50.637Z,17.50
2022-08-12T20:36:47.685Z,18.98
2022-08-12T20:39:53.732Z,16.85
2022-08-12T20:42:46.476Z,21.40
2022-08-12T20:45:44.870Z,17.60
2022-08-12T20:48:41.244Z,18.83
2022-08-12T20:51:50.885Z,15.98
2022-08-12T20:54:40.575Z,18.23
2022-08-12T20:57:38.339Z,18.80
2022-08-12T21:00:41.054Z,17.70
2022-08-12T21:03:52.301Z,16.05
2022-08-12T21:07:08.443Z,20.88
2022-08-12T21:09:56.612Z,19.00
2022-08-12T21:12:44.008Z,20.02
2022-08-12T21:15:54.565Z,20.58
2022-08-12T21:18:52.776Z,19.27
2022-08-12T21:21:50.038Z,18.75
2022-08-12T21:24:38.438Z,16.50
2022-08-12T21:27:58.188Z,18.08
2022-08-12T21:30:55.049Z,19.15
2022-08-12T21:34:07.429Z,14.43
2022-08-12T21:36:56.957Z,13.38
2022-08-12T21:39:52.155Z,18.60
2022-08-12T21:42:40.433Z,15.02
2022-08-12T21:45:47.938Z,13.63
2022-08-12T21:48:42.409Z,12.18
2022-08-12T21:51:50.078Z,12.82
2022-08-12T21:54:42.958Z,12.02
2022-08-12T21:57:36.457Z,12.07
2022-08-12T22:00:40.275Z,13.55
2022-08-12T22:04:02.693Z,14.73
2022-08-12T22:06:54.629Z,11.52
2022-08-12T22:09:46.953Z,11.13
2022-08-12T22:12:46.183Z,11.90
2022-08-12T22:15:34.294Z,11.05
2022-08-12T22:18:23.871Z,13.23
2022-08-12T22:21:16.976Z,12.85
2022-08-12T22:24:09.812Z,11.98
2022-08-12T22:27:31.861Z,11.77
2022-08-12T22:30:37.985Z,13.15
2022-08-12T22:33:26.692Z,13.20
2022-08-12T22:36:20.304Z,13.57
2022-08-12T22:39:11.809Z,13.73
2022-08-12T22:45:26.126Z,16.38
2022-08-12T22:48:21.889Z,11.82
2022-08-12T22:51:20.296Z,12.75
2022-08-12T22:54:07.833Z,11.55
2022-08-12T22:57:20.647Z,14.05
2022-08-12T23:00:27.299Z,12.15
2022-08-12T23:03:47.850Z,13.05
2022-08-12T23:06:25.528Z,13.20
2022-08-12T23:09:16.112Z,15.07
2022-08-12T23:12:08.158Z,13.57
2022-08-12T23:15:11.069Z,12.85
2022-08-12T23:17:58.884Z,14.45
2022-08-12T23:20:46.490Z,15.20
2022-08-12T23:23:57.675Z,13.52
2022-08-12T23:27:04.184Z,11.55
2022-08-12T23:29:59.357Z,17.45
2022-08-12T23:33:13.143Z,13.80
2022-08-12T23:36:03.399Z,13.32
2022-08-12T23:38:58.541Z,15.38
2022-08-12T23:41:56.319Z,13.45
2022-08-12T23:45:03.623Z,11.52
2022-08-12T23:48:08.481Z,17.90
2022-08-12T23:51:22.666Z,14.88
2022-08-12T23:54:17.917Z,14.43
2022-08-12T23:57:21.089Z,16.10
